sensor_id;sensor_type;location;lat;lon;timestamp;temperature;humidity
31309;DHT22;17936;52.446;10.840;2023-06-14T00:02:12;15.20;99.90
31309;DHT22;17936;52.446;10.840;2023-06-14T00:04:37;15.10;99.90
31309;DHT22;17936;52.446;10.840;2023-06-14T00:07:05;15.00;99.90
31309;DHT22;17936;52.446;10.840;2023-06-14T00:09:33;15.20;99.90
31309;DHT22;17936;52.446;10.840;2023-06-14T00:11:59;15.20;99.90
31309;DHT22;17936;52.446;10.840;2023-06-14T00:14:24;15.30;99.90
31309;DHT22;17936;52.446;10.840;2023-06-14T00:16:50;15.00;99.90
31309;DHT22;17936;52.446;10.840;2023-06-14T00:19:17;15.00;99.90
31309;DHT22;17936;52.446;10.840;2023-06-14T00:21:43;15.00;99.90
31309;DHT22;17936;52.446;10.840;2023-06-14T00:24:09;15.20;99.90
31309;DHT22;17936;52.446;10.840;2023-06-14T00:26:34;14.90;99.90
31309;DHT22;17936;52.446;10.840;2023-06-14T00:29:00;15.00;99.90
31309;DHT22;17936;52.446;10.840;2023-06-14T00:31:25;14.90;99.90
31309;DHT22;17936;52.446;10.840;2023-06-14T00:33:51;14.80;99.90
31309;DHT22;17936;52.446;10.840;2023-06-14T00:36:16;14.70;99.90
31309;DHT22;17936;52.446;10.840;2023-06-14T00:38:42;14.40;99.90
31309;DHT22;17936;52.446;10.840;2023-06-14T00:41:07;14.10;99.90
31309;DHT22;17936;52.446;10.840;2023-06-14T00:43:33;14.50;99.90
31309;DHT22;17936;52.446;10.840;2023-06-14T00:46:00;14.40;99.90
31309;DHT22;17936;52.446;10.840;2023-06-14T00:48:26;14.70;99.90
31309;DHT22;17936;52.446;10.840;2023-06-14T00:50:52;14.40;99.90
31309;DHT22;17936;52.446;10.840;2023-06-14T00:53:19;14.60;99.90
31309;DHT22;17936;52.446;10.840;2023-06-14T00:55:46;14.80;99.90
31309;DHT22;17936;52.446;10.840;2023-06-14T00:58:12;14.60;99.90
31309;DHT22;17936;52.446;10.840;2023-06-14T01:00:38;14.50;99.90
31309;DHT22;17936;52.446;10.840;2023-06-14T01:03:04;14.50;99.90
31309;DHT22;17936;52.446;10.840;2023-06-14T01:05:30;14.50;99.90
31309;DHT22;17936;52.446;10.840;2023-06-14T01:08:23;14.40;99.90
31309;DHT22;17936;52.446;10.840;2023-06-14T01:11:07;14.30;99.90
31309;DHT22;17936;52.446;10.840;2023-06-14T01:13:36;14.50;99.90
31309;DHT22;17936;52.446;10.840;2023-06-14T01:16:03;14.70;99.90
31309;DHT22;17936;52.446;10.840;2023-06-14T01:18:29;14.40;99.90
31309;DHT22;17936;52.446;10.840;2023-06-14T01:20:55;14.40;99.90
31309;DHT22;17936;52.446;10.840;2023-06-14T01:23:22;14.60;99.90
31309;DHT22;17936;52.446;10.840;2023-06-14T01:25:49;14.20;99.90
31309;DHT22;17936;52.446;10.840;2023-06-14T01:28:19;14.30;99.90
31309;DHT22;17936;52.446;10.840;2023-06-14T01:30:50;14.40;99.90
31309;DHT22;17936;52.446;10.840;2023-06-14T01:33:22;14.20;99.90
31309;DHT22;17936;52.446;10.840;2023-06-14T01:35:53;14.10;99.90
31309;DHT22;17936;52.446;10.840;2023-06-14T01:38:24;14.10;99.90
31309;DHT22;17936;52.446;10.840;2023-06-14T01:40:50;14.10;99.90
31309;DHT22;17936;52.446;10.840;2023-06-14T01:43:18;14.20;99.90
31309;DHT22;17936;52.446;10.840;2023-06-14T01:45:45;13.90;99.90
31309;DHT22;17936;52.446;10.840;2023-06-14T01:48:12;14.00;99.90
31309;DHT22;17936;52.446;10.840;2023-06-14T01:50:38;13.90;99.90
31309;DHT22;17936;52.446;10.840;2023-06-14T01:53:08;13.90;99.90
31309;DHT22;17936;52.446;10.840;2023-06-14T01:55:34;13.90;99.90
31309;DHT22;17936;52.446;10.840;2023-06-14T01:58:03;14.00;99.90
31309;DHT22;17936;52.446;10.840;2023-06-14T02:00:29;14.00;99.90
31309;DHT22;17936;52.446;10.840;2023-06-14T02:02:54;14.00;99.90
31309;DHT22;17936;52.446;10.840;2023-06-14T02:05:21;14.00;99.90
31309;DHT22;17936;52.446;10.840;2023-06-14T02:07:46;13.80;99.90
31309;DHT22;17936;52.446;10.840;2023-06-14T02:10:13;13.70;99.90
31309;DHT22;17936;52.446;10.840;2023-06-14T02:12:38;13.50;99.90
31309;DHT22;17936;52.446;10.840;2023-06-14T02:15:04;13.40;99.90
31309;DHT22;17936;52.446;10.840;2023-06-14T02:17:31;13.50;99.90
31309;DHT22;17936;52.446;10.840;2023-06-14T02:19:56;13.30;99.90
31309;DHT22;17936;52.446;10.840;2023-06-14T02:22:22;13.50;99.90
31309;DHT22;17936;52.446;10.840;2023-06-14T02:24:48;13.50;99.90
31309;DHT22;17936;52.446;10.840;2023-06-14T02:27:14;13.50;99.90
31309;DHT22;17936;52.446;10.840;2023-06-14T02:29:39;13.60;99.90
31309;DHT22;17936;52.446;10.840;2023-06-14T02:32:05;13.40;99.90
31309;DHT22;17936;52.446;10.840;2023-06-14T02:34:33;13.30;99.90
31309;DHT22;17936;52.446;10.840;2023-06-14T02:36:59;13.40;99.90
31309;DHT22;17936;52.446;10.840;2023-06-14T02:39:24;13.40;99.90
31309;DHT22;17936;52.446;10.840;2023-06-14T02:41:50;13.10;99.90
31309;DHT22;17936;52.446;10.840;2023-06-14T02:44:18;12.90;99.90
31309;DHT22;17936;52.446;10.840;2023-06-14T02:46:43;13.00;99.90
31309;DHT22;17936;52.446;10.840;2023-06-14T02:49:10;12.80;99.90
31309;DHT22;17936;52.446;10.840;2023-06-14T02:51:36;12.70;99.90
31309;DHT22;17936;52.446;10.840;2023-06-14T02:54:01;12.90;99.90
31309;DHT22;17936;52.446;10.840;2023-06-14T02:56:28;13.10;99.90
31309;DHT22;17936;52.446;10.840;2023-06-14T02:58:54;13.10;99.90
31309;DHT22;17936;52.446;10.840;2023-06-14T03:01:20;13.00;99.90
31309;DHT22;17936;52.446;10.840;2023-06-14T03:03:46;12.80;99.90
31309;DHT22;17936;52.446;10.840;2023-06-14T03:06:12;12.70;99.90
31309;DHT22;17936;52.446;10.840;2023-06-14T03:08:39;12.80;99.90
31309;DHT22;17936;52.446;10.840;2023-06-14T03:11:07;12.80;99.90
31309;DHT22;17936;52.446;10.840;2023-06-14T03:13:33;13.00;99.90
31309;DHT22;17936;52.446;10.840;2023-06-14T03:15:59;12.80;99.90
31309;DHT22;17936;52.446;10.840;2023-06-14T03:18:26;12.90;99.90
31309;DHT22;17936;52.446;10.840;2023-06-14T03:20:52;12.90;99.90
31309;DHT22;17936;52.446;10.840;2023-06-14T03:23:19;12.90;99.90
31309;DHT22;17936;52.446;10.840;2023-06-14T03:25:44;12.70;99.90
31309;DHT22;17936;52.446;10.840;2023-06-14T03:28:10;12.80;99.90
31309;DHT22;17936;52.446;10.840;2023-06-14T03:30:36;12.80;99.90
31309;DHT22;17936;52.446;10.840;2023-06-14T03:33:01;13.00;99.90
31309;DHT22;17936;52.446;10.840;2023-06-14T03:35:28;12.80;99.90
31309;DHT22;17936;52.446;10.840;2023-06-14T03:37:54;12.50;99.90
31309;DHT22;17936;52.446;10.840;2023-06-14T03:40:21;12.40;99.90
31309;DHT22;17936;52.446;10.840;2023-06-14T03:42:46;12.60;99.90
31309;DHT22;17936;52.446;10.840;2023-06-14T03:45:12;12.60;99.90
31309;DHT22;17936;52.446;10.840;2023-06-14T03:47:37;12.50;99.90
31309;DHT22;17936;52.446;10.840;2023-06-14T03:50:03;12.50;99.90
31309;DHT22;17936;52.446;10.840;2023-06-14T03:52:29;12.60;99.90
31309;DHT22;17936;52.446;10.840;2023-06-14T03:54:55;12.90;99.90
31309;DHT22;17936;52.446;10.840;2023-06-14T03:57:23;12.80;99.90
31309;DHT22;17936;52.446;10.840;2023-06-14T03:59:48;12.90;99.90
31309;DHT22;17936;52.446;10.840;2023-06-14T04:02:15;12.90;99.90
31309;DHT22;17936;52.446;10.840;2023-06-14T04:04:41;12.80;99.90
31309;DHT22;17936;52.446;10.840;2023-06-14T04:07:10;12.70;99.90
31309;DHT22;17936;52.446;10.840;2023-06-14T04:09:35;12.90;99.90
31309;DHT22;17936;52.446;10.840;2023-06-14T04:12:01;12.80;99.90
31309;DHT22;17936;52.446;10.840;2023-06-14T04:14:26;12.80;99.90
31309;DHT22;17936;52.446;10.840;2023-06-14T04:16:52;12.70;99.90
31309;DHT22;17936;52.446;10.840;2023-06-14T04:19:17;12.60;99.90
31309;DHT22;17936;52.446;10.840;2023-06-14T04:21:43;12.70;99.90
31309;DHT22;17936;52.446;10.840;2023-06-14T04:24:08;12.70;99.90
31309;DHT22;17936;52.446;10.840;2023-06-14T04:26:39;13.00;99.90
31309;DHT22;17936;52.446;10.840;2023-06-14T04:29:05;13.10;99.90
31309;DHT22;17936;52.446;10.840;2023-06-14T04:31:31;12.90;99.90
31309;DHT22;17936;52.446;10.840;2023-06-14T04:34:02;12.90;99.90
31309;DHT22;17936;52.446;10.840;2023-06-14T04:36:34;13.10;99.90
31309;DHT22;17936;52.446;10.840;2023-06-14T04:39:05;13.50;99.90
31309;DHT22;17936;52.446;10.840;2023-06-14T04:41:31;13.70;99.90
31309;DHT22;17936;52.446;10.840;2023-06-14T04:43:58;13.70;99.90
31309;DHT22;17936;52.446;10.840;2023-06-14T04:46:30;13.90;99.90
31309;DHT22;17936;52.446;10.840;2023-06-14T04:48:57;14.40;99.90
31309;DHT22;17936;52.446;10.840;2023-06-14T04:51:27;14.30;99.90
31309;DHT22;17936;52.446;10.840;2023-06-14T04:53:58;14.50;99.90
31309;DHT22;17936;52.446;10.840;2023-06-14T04:56:24;14.70;99.90
31309;DHT22;17936;52.446;10.840;2023-06-14T04:58:52;14.60;99.90
31309;DHT22;17936;52.446;10.840;2023-06-14T05:01:19;14.50;99.90
31309;DHT22;17936;52.446;10.840;2023-06-14T05:03:46;14.80;99.90
31309;DHT22;17936;52.446;10.840;2023-06-14T05:06:13;14.90;99.90
31309;DHT22;17936;52.446;10.840;2023-06-14T05:08:39;14.80;99.90
31309;DHT22;17936;52.446;10.840;2023-06-14T05:11:04;14.90;99.90
31309;DHT22;17936;52.446;10.840;2023-06-14T05:13:30;15.10;99.90
31309;DHT22;17936;52.446;10.840;2023-06-14T05:15:58;15.50;99.90
31309;DHT22;17936;52.446;10.840;2023-06-14T05:18:23;16.00;99.90
31309;DHT22;17936;52.446;10.840;2023-06-14T05:20:50;15.60;99.90
31309;DHT22;17936;52.446;10.840;2023-06-14T05:23:16;15.60;99.90
31309;DHT22;17936;52.446;10.840;2023-06-14T05:25:43;15.80;99.90
31309;DHT22;17936;52.446;10.840;2023-06-14T05:28:09;15.90;99.90
31309;DHT22;17936;52.446;10.840;2023-06-14T05:30:34;15.90;99.90
31309;DHT22;17936;52.446;10.840;2023-06-14T05:33:00;16.10;99.90
31309;DHT22;17936;52.446;10.840;2023-06-14T05:35:25;16.40;99.90
31309;DHT22;17936;52.446;10.840;2023-06-14T05:37:52;17.20;99.90
31309;DHT22;17936;52.446;10.840;2023-06-14T05:40:19;17.50;99.90
31309;DHT22;17936;52.446;10.840;2023-06-14T05:42:45;17.00;99.90
31309;DHT22;17936;52.446;10.840;2023-06-14T05:45:10;16.90;99.90
31309;DHT22;17936;52.446;10.840;2023-06-14T05:47:36;17.00;99.90
31309;DHT22;17936;52.446;10.840;2023-06-14T05:50:01;17.30;99.90
31309;DHT22;17936;52.446;10.840;2023-06-14T05:52:27;17.00;99.90
31309;DHT22;17936;52.446;10.840;2023-06-14T05:54:53;17.20;99.90
31309;DHT22;17936;52.446;10.840;2023-06-14T05:57:19;17.40;99.90
31309;DHT22;17936;52.446;10.840;2023-06-14T05:59:44;17.40;99.90
31309;DHT22;17936;52.446;10.840;2023-06-14T06:02:10;18.00;99.90
31309;DHT22;17936;52.446;10.840;2023-06-14T06:04:35;17.70;99.90
31309;DHT22;17936;52.446;10.840;2023-06-14T06:07:01;17.60;99.90
31309;DHT22;17936;52.446;10.840;2023-06-14T06:09:26;18.20;99.90
31309;DHT22;17936;52.446;10.840;2023-06-14T06:11:52;18.20;99.90
31309;DHT22;17936;52.446;10.840;2023-06-14T06:14:18;18.60;99.90
31309;DHT22;17936;52.446;10.840;2023-06-14T06:16:43;18.70;99.90
31309;DHT22;17936;52.446;10.840;2023-06-14T06:19:08;18.70;99.90
31309;DHT22;17936;52.446;10.840;2023-06-14T06:21:34;18.50;99.90
31309;DHT22;17936;52.446;10.840;2023-06-14T06:24:00;19.10;99.90
31309;DHT22;17936;52.446;10.840;2023-06-14T06:26:29;18.80;99.90
31309;DHT22;17936;52.446;10.840;2023-06-14T06:28:55;18.70;99.90
31309;DHT22;17936;52.446;10.840;2023-06-14T06:31:20;19.10;99.90
31309;DHT22;17936;52.446;10.840;2023-06-14T06:33:47;19.00;99.90
31309;DHT22;17936;52.446;10.840;2023-06-14T06:36:13;19.00;99.90
31309;DHT22;17936;52.446;10.840;2023-06-14T06:38:38;18.60;99.90
31309;DHT22;17936;52.446;10.840;2023-06-14T06:41:04;19.10;99.90
31309;DHT22;17936;52.446;10.840;2023-06-14T06:43:30;19.40;99.90
31309;DHT22;17936;52.446;10.840;2023-06-14T06:45:55;19.70;99.90
31309;DHT22;17936;52.446;10.840;2023-06-14T06:48:21;19.40;99.90
31309;DHT22;17936;52.446;10.840;2023-06-14T06:50:46;19.60;99.90
31309;DHT22;17936;52.446;10.840;2023-06-14T06:53:12;20.00;99.90
31309;DHT22;17936;52.446;10.840;2023-06-14T06:55:37;19.90;99.90
31309;DHT22;17936;52.446;10.840;2023-06-14T06:58:03;20.10;99.90
31309;DHT22;17936;52.446;10.840;2023-06-14T07:00:30;20.20;99.90
31309;DHT22;17936;52.446;10.840;2023-06-14T07:02:56;19.80;99.90
31309;DHT22;17936;52.446;10.840;2023-06-14T07:05:22;20.00;99.90
31309;DHT22;17936;52.446;10.840;2023-06-14T07:07:48;20.00;99.90
31309;DHT22;17936;52.446;10.840;2023-06-14T07:10:13;19.40;99.90
31309;DHT22;17936;52.446;10.840;2023-06-14T07:12:39;19.30;99.90
31309;DHT22;17936;52.446;10.840;2023-06-14T07:15:06;19.90;99.90
31309;DHT22;17936;52.446;10.840;2023-06-14T07:17:33;20.20;99.90
31309;DHT22;17936;52.446;10.840;2023-06-14T07:19:59;20.20;99.90
31309;DHT22;17936;52.446;10.840;2023-06-14T07:22:26;20.40;99.90
31309;DHT22;17936;52.446;10.840;2023-06-14T07:24:51;20.20;99.90
31309;DHT22;17936;52.446;10.840;2023-06-14T07:27:17;20.40;99.90
31309;DHT22;17936;52.446;10.840;2023-06-14T07:29:43;20.30;99.90
31309;DHT22;17936;52.446;10.840;2023-06-14T07:32:08;20.20;99.90
31309;DHT22;17936;52.446;10.840;2023-06-14T07:34:34;20.70;99.90
31309;DHT22;17936;52.446;10.840;2023-06-14T07:36:59;20.40;99.90
31309;DHT22;17936;52.446;10.840;2023-06-14T07:39:25;20.70;99.90
31309;DHT22;17936;52.446;10.840;2023-06-14T07:41:52;21.30;99.90
31309;DHT22;17936;52.446;10.840;2023-06-14T07:44:20;20.80;99.10
31309;DHT22;17936;52.446;10.840;2023-06-14T07:46:47;20.70;99.10
31309;DHT22;17936;52.446;10.840;2023-06-14T07:49:17;21.00;99.60
31309;DHT22;17936;52.446;10.840;2023-06-14T07:51:44;21.10;99.40
31309;DHT22;17936;52.446;10.840;2023-06-14T07:54:10;21.30;98.40
31309;DHT22;17936;52.446;10.840;2023-06-14T07:56:37;21.00;98.20
31309;DHT22;17936;52.446;10.840;2023-06-14T07:59:03;21.50;97.60
31309;DHT22;17936;52.446;10.840;2023-06-14T08:01:30;21.30;96.10
31309;DHT22;17936;52.446;10.840;2023-06-14T08:03:57;21.50;96.80
31309;DHT22;17936;52.446;10.840;2023-06-14T08:06:22;21.60;96.90
31309;DHT22;17936;52.446;10.840;2023-06-14T08:08:48;21.50;97.70
31309;DHT22;17936;52.446;10.840;2023-06-14T08:11:14;22.40;96.30
31309;DHT22;17936;52.446;10.840;2023-06-14T08:13:40;22.60;94.70
31309;DHT22;17936;52.446;10.840;2023-06-14T08:16:07;21.90;94.60
31309;DHT22;17936;52.446;10.840;2023-06-14T08:18:33;21.60;95.00
31309;DHT22;17936;52.446;10.840;2023-06-14T08:20:59;22.20;94.10
31309;DHT22;17936;52.446;10.840;2023-06-14T08:23:26;22.80;94.00
31309;DHT22;17936;52.446;10.840;2023-06-14T08:25:56;22.10;92.40
31309;DHT22;17936;52.446;10.840;2023-06-14T08:28:24;21.90;92.40
31309;DHT22;17936;52.446;10.840;2023-06-14T08:30:49;22.40;92.30
31309;DHT22;17936;52.446;10.840;2023-06-14T08:33:17;22.30;91.30
31309;DHT22;17936;52.446;10.840;2023-06-14T08:35:44;22.00;90.90
31309;DHT22;17936;52.446;10.840;2023-06-14T08:38:11;22.30;92.00
31309;DHT22;17936;52.446;10.840;2023-06-14T08:40:40;22.10;92.10
31309;DHT22;17936;52.446;10.840;2023-06-14T08:43:07;22.90;91.90
31309;DHT22;17936;52.446;10.840;2023-06-14T08:45:34;23.10;89.10
31309;DHT22;17936;52.446;10.840;2023-06-14T08:48:04;22.50;90.20
31309;DHT22;17936;52.446;10.840;2023-06-14T08:50:39;22.90;91.00
31309;DHT22;17936;52.446;10.840;2023-06-14T08:53:08;23.30;89.70
31309;DHT22;17936;52.446;10.840;2023-06-14T08:55:38;22.80;89.10
31309;DHT22;17936;52.446;10.840;2023-06-14T08:58:08;22.90;89.10
31309;DHT22;17936;52.446;10.840;2023-06-14T09:00:36;23.00;87.90
31309;DHT22;17936;52.446;10.840;2023-06-14T09:03:04;23.30;88.80
31309;DHT22;17936;52.446;10.840;2023-06-14T09:05:32;23.10;88.10
31309;DHT22;17936;52.446;10.840;2023-06-14T09:07:58;22.60;87.60
31309;DHT22;17936;52.446;10.840;2023-06-14T09:10:27;22.90;88.60
31309;DHT22;17936;52.446;10.840;2023-06-14T09:12:53;23.90;87.50
31309;DHT22;17936;52.446;10.840;2023-06-14T09:15:19;24.30;84.30
31309;DHT22;17936;52.446;10.840;2023-06-14T09:17:46;23.30;86.00
31309;DHT22;17936;52.446;10.840;2023-06-14T09:20:13;22.50;87.30
31309;DHT22;17936;52.446;10.840;2023-06-14T09:22:42;23.40;86.70
31309;DHT22;17936;52.446;10.840;2023-06-14T09:25:08;23.90;85.80
31309;DHT22;17936;52.446;10.840;2023-06-14T09:27:34;23.30;86.70
31309;DHT22;17936;52.446;10.840;2023-06-14T09:30:04;23.40;85.40
31309;DHT22;17936;52.446;10.840;2023-06-14T09:32:30;24.20;84.40
31309;DHT22;17936;52.446;10.840;2023-06-14T09:34:56;23.80;86.50
31309;DHT22;17936;52.446;10.840;2023-06-14T09:39:54;23.70;85.30
31309;DHT22;17936;52.446;10.840;2023-06-14T09:42:20;23.60;85.20
31309;DHT22;17936;52.446;10.840;2023-06-14T09:44:50;23.40;86.10
31309;DHT22;17936;52.446;10.840;2023-06-14T09:47:16;23.60;87.80
31309;DHT22;17936;52.446;10.840;2023-06-14T09:49:42;23.70;87.60
31309;DHT22;17936;52.446;10.840;2023-06-14T09:52:17;24.30;86.30
31309;DHT22;17936;52.446;10.840;2023-06-14T09:54:45;24.80;88.00
31309;DHT22;17936;52.446;10.840;2023-06-14T09:57:16;25.40;87.80
31309;DHT22;17936;52.446;10.840;2023-06-14T09:59:43;24.80;88.30
31309;DHT22;17936;52.446;10.840;2023-06-14T10:05:17;22.80;91.30
31309;DHT22;17936;52.446;10.840;2023-06-14T10:07:53;22.90;91.10
31309;DHT22;17936;52.446;10.840;2023-06-14T10:10:21;22.70;90.90
31309;DHT22;17936;52.446;10.840;2023-06-14T10:12:47;22.50;92.00
31309;DHT22;17936;52.446;10.840;2023-06-14T10:15:19;22.80;92.50
31309;DHT22;17936;52.446;10.840;2023-06-14T10:18:24;23.00;91.40
31309;DHT22;17936;52.446;10.840;2023-06-14T10:23:42;24.40;90.60
31309;DHT22;17936;52.446;10.840;2023-06-14T10:26:20;24.70;89.80
31309;DHT22;17936;52.446;10.840;2023-06-14T10:29:01;24.20;88.80
31309;DHT22;17936;52.446;10.840;2023-06-14T10:34:08;22.70;91.60
31309;DHT22;17936;52.446;10.840;2023-06-14T10:36:33;22.30;92.40
31309;DHT22;17936;52.446;10.840;2023-06-14T10:39:08;22.60;92.00
31309;DHT22;17936;52.446;10.840;2023-06-14T10:41:38;22.30;92.30
31309;DHT22;17936;52.446;10.840;2023-06-14T10:46:39;23.20;92.00
31309;DHT22;17936;52.446;10.840;2023-06-14T10:49:05;22.80;90.40
31309;DHT22;17936;52.446;10.840;2023-06-14T10:51:42;22.00;90.90
31309;DHT22;17936;52.446;10.840;2023-06-14T10:54:12;21.90;91.00
31309;DHT22;17936;52.446;10.840;2023-06-14T10:56:52;22.10;91.50
31309;DHT22;17936;52.446;10.840;2023-06-14T10:59:18;22.30;91.10
31309;DHT22;17936;52.446;10.840;2023-06-14T11:04:13;22.50;91.70
31309;DHT22;17936;52.446;10.840;2023-06-14T11:12:03;23.60;88.80
31309;DHT22;17936;52.446;10.840;2023-06-14T11:14:30;22.80;88.80
31309;DHT22;17936;52.446;10.840;2023-06-14T11:16:56;22.90;90.40
31309;DHT22;17936;52.446;10.840;2023-06-14T11:19:22;23.50;89.20
31309;DHT22;17936;52.446;10.840;2023-06-14T11:21:48;24.40;86.40
31309;DHT22;17936;52.446;10.840;2023-06-14T11:24:14;24.10;85.40
31309;DHT22;17936;52.446;10.840;2023-06-14T11:26:40;23.70;85.40
31309;DHT22;17936;52.446;10.840;2023-06-14T11:29:06;23.60;84.70
31309;DHT22;17936;52.446;10.840;2023-06-14T11:31:31;24.60;83.20
31309;DHT22;17936;52.446;10.840;2023-06-14T11:33:58;24.40;80.70
31309;DHT22;17936;52.446;10.840;2023-06-14T11:36:28;24.20;80.60
31309;DHT22;17936;52.446;10.840;2023-06-14T11:39:07;25.10;84.10
31309;DHT22;17936;52.446;10.840;2023-06-14T11:41:41;25.10;82.00
31309;DHT22;17936;52.446;10.840;2023-06-14T11:44:08;25.50;80.00
31309;DHT22;17936;52.446;10.840;2023-06-14T11:46:34;24.20;81.40
31309;DHT22;17936;52.446;10.840;2023-06-14T11:48:59;23.70;82.30
31309;DHT22;17936;52.446;10.840;2023-06-14T11:51:34;23.50;82.40
31309;DHT22;17936;52.446;10.840;2023-06-14T11:54:05;23.50;82.60
31309;DHT22;17936;52.446;10.840;2023-06-14T11:56:31;23.70;82.90
31309;DHT22;17936;52.446;10.840;2023-06-14T11:58:57;23.80;83.00
31309;DHT22;17936;52.446;10.840;2023-06-14T12:01:23;24.60;79.80
31309;DHT22;17936;52.446;10.840;2023-06-14T12:03:52;24.50;82.20
31309;DHT22;17936;52.446;10.840;2023-06-14T12:06:29;24.90;79.60
31309;DHT22;17936;52.446;10.840;2023-06-14T12:08:58;25.20;79.30
31309;DHT22;17936;52.446;10.840;2023-06-14T12:11:24;24.00;79.60
31309;DHT22;17936;52.446;10.840;2023-06-14T12:13:53;23.40;80.10
31309;DHT22;17936;52.446;10.840;2023-06-14T12:16:18;23.20;80.40
31309;DHT22;17936;52.446;10.840;2023-06-14T12:18:44;23.80;79.60
31309;DHT22;17936;52.446;10.840;2023-06-14T12:21:10;24.60;77.80
31309;DHT22;17936;52.446;10.840;2023-06-14T12:23:42;25.00;77.30
31309;DHT22;17936;52.446;10.840;2023-06-14T12:26:07;24.60;77.30
31309;DHT22;17936;52.446;10.840;2023-06-14T12:28:33;25.20;75.30
31309;DHT22;17936;52.446;10.840;2023-06-14T12:30:58;25.20;75.70
31309;DHT22;17936;52.446;10.840;2023-06-14T12:33:24;25.10;75.40
31309;DHT22;17936;52.446;10.840;2023-06-14T12:35:50;25.50;75.30
31309;DHT22;17936;52.446;10.840;2023-06-14T12:38:16;25.30;74.50
31309;DHT22;17936;52.446;10.840;2023-06-14T12:40:42;25.60;73.50
31309;DHT22;17936;52.446;10.840;2023-06-14T12:43:07;25.30;74.60
31309;DHT22;17936;52.446;10.840;2023-06-14T12:45:33;25.50;73.70
31309;DHT22;17936;52.446;10.840;2023-06-14T12:47:58;25.50;73.30
31309;DHT22;17936;52.446;10.840;2023-06-14T12:50:24;24.90;72.80
31309;DHT22;17936;52.446;10.840;2023-06-14T12:52:50;24.00;75.70
31309;DHT22;17936;52.446;10.840;2023-06-14T12:55:16;24.50;77.00
31309;DHT22;17936;52.446;10.840;2023-06-14T12:57:41;25.40;72.70
31309;DHT22;17936;52.446;10.840;2023-06-14T13:00:07;25.10;73.20
31309;DHT22;17936;52.446;10.840;2023-06-14T13:02:33;24.70;73.60
31309;DHT22;17936;52.446;10.840;2023-06-14T13:04:59;24.50;74.10
31309;DHT22;17936;52.446;10.840;2023-06-14T13:07:25;24.40;75.30
31309;DHT22;17936;52.446;10.840;2023-06-14T13:09:51;25.10;73.80
31309;DHT22;17936;52.446;10.840;2023-06-14T13:12:16;24.50;73.30
31309;DHT22;17936;52.446;10.840;2023-06-14T13:14:42;23.90;74.80
31309;DHT22;17936;52.446;10.840;2023-06-14T13:17:10;23.70;75.00
31309;DHT22;17936;52.446;10.840;2023-06-14T13:19:36;23.60;75.30
31309;DHT22;17936;52.446;10.840;2023-06-14T13:22:02;23.40;74.90
31309;DHT22;17936;52.446;10.840;2023-06-14T13:24:28;23.40;77.10
31309;DHT22;17936;52.446;10.840;2023-06-14T13:26:55;24.30;76.60
31309;DHT22;17936;52.446;10.840;2023-06-14T13:29:20;25.90;75.00
31309;DHT22;17936;52.446;10.840;2023-06-14T13:31:46;25.60;73.90
31309;DHT22;17936;52.446;10.840;2023-06-14T13:34:12;25.90;73.90
31309;DHT22;17936;52.446;10.840;2023-06-14T13:36:37;25.80;75.20
31309;DHT22;17936;52.446;10.840;2023-06-14T13:39:03;24.90;72.20
31309;DHT22;17936;52.446;10.840;2023-06-14T13:41:29;24.10;73.30
31309;DHT22;17936;52.446;10.840;2023-06-14T13:43:58;24.00;74.70
31309;DHT22;17936;52.446;10.840;2023-06-14T13:46:24;24.90;73.40
31309;DHT22;17936;52.446;10.840;2023-06-14T13:48:49;25.60;71.60
31309;DHT22;17936;52.446;10.840;2023-06-14T13:51:15;25.90;69.40
31309;DHT22;17936;52.446;10.840;2023-06-14T13:53:42;25.70;71.30
31309;DHT22;17936;52.446;10.840;2023-06-14T13:56:08;26.00;70.20
31309;DHT22;17936;52.446;10.840;2023-06-14T13:58:33;25.00;70.50
31309;DHT22;17936;52.446;10.840;2023-06-14T14:00:59;24.60;71.30
31309;DHT22;17936;52.446;10.840;2023-06-14T14:03:25;24.90;71.00
31309;DHT22;17936;52.446;10.840;2023-06-14T14:05:50;25.10;71.30
31309;DHT22;17936;52.446;10.840;2023-06-14T14:08:16;24.40;70.10
31309;DHT22;17936;52.446;10.840;2023-06-14T14:10:41;23.90;70.50
31309;DHT22;17936;52.446;10.840;2023-06-14T14:13:07;24.10;70.90
31309;DHT22;17936;52.446;10.840;2023-06-14T14:15:32;24.60;70.50
31309;DHT22;17936;52.446;10.840;2023-06-14T14:18:00;24.20;69.80
31309;DHT22;17936;52.446;10.840;2023-06-14T14:20:25;24.00;71.20
31309;DHT22;17936;52.446;10.840;2023-06-14T14:22:51;23.90;71.50
31309;DHT22;17936;52.446;10.840;2023-06-14T14:25:16;23.90;72.40
31309;DHT22;17936;52.446;10.840;2023-06-14T14:27:42;23.80;71.90
31309;DHT22;17936;52.446;10.840;2023-06-14T14:30:08;23.60;72.60
31309;DHT22;17936;52.446;10.840;2023-06-14T14:32:33;23.40;73.30
31309;DHT22;17936;52.446;10.840;2023-06-14T14:34:59;23.30;73.20
31309;DHT22;17936;52.446;10.840;2023-06-14T14:37:24;23.60;75.00
31309;DHT22;17936;52.446;10.840;2023-06-14T14:39:50;24.60;73.40
31309;DHT22;17936;52.446;10.840;2023-06-14T14:42:15;25.40;72.50
31309;DHT22;17936;52.446;10.840;2023-06-14T14:44:41;25.90;69.90
31309;DHT22;17936;52.446;10.840;2023-06-14T14:47:06;26.10;70.30
31309;DHT22;17936;52.446;10.840;2023-06-14T14:49:32;25.70;70.70
31309;DHT22;17936;52.446;10.840;2023-06-14T14:51:57;24.90;71.30
31309;DHT22;17936;52.446;10.840;2023-06-14T14:54:23;24.50;72.40
31309;DHT22;17936;52.446;10.840;2023-06-14T14:56:50;24.40;71.90
31309;DHT22;17936;52.446;10.840;2023-06-14T14:59:15;24.00;71.70
31309;DHT22;17936;52.446;10.840;2023-06-14T15:01:41;23.90;71.80
31309;DHT22;17936;52.446;10.840;2023-06-14T15:04:06;23.50;71.70
31309;DHT22;17936;52.446;10.840;2023-06-14T15:06:32;23.50;72.70
31309;DHT22;17936;52.446;10.840;2023-06-14T15:09:01;23.40;72.40
31309;DHT22;17936;52.446;10.840;2023-06-14T15:11:26;23.30;72.40
31309;DHT22;17936;52.446;10.840;2023-06-14T15:13:52;23.30;72.40
31309;DHT22;17936;52.446;10.840;2023-06-14T15:16:18;23.30;72.70
31309;DHT22;17936;52.446;10.840;2023-06-14T15:18:43;23.30;73.10
31309;DHT22;17936;52.446;10.840;2023-06-14T15:21:09;23.30;73.70
31309;DHT22;17936;52.446;10.840;2023-06-14T15:23:34;23.30;73.40
31309;DHT22;17936;52.446;10.840;2023-06-14T15:26:00;23.20;73.80
31309;DHT22;17936;52.446;10.840;2023-06-14T15:28:25;23.50;74.30
31309;DHT22;17936;52.446;10.840;2023-06-14T15:30:55;24.20;73.90
31309;DHT22;17936;52.446;10.840;2023-06-14T15:33:21;24.60;72.00
31309;DHT22;17936;52.446;10.840;2023-06-14T15:35:47;25.30;71.50